»·PEaware :: N842X KSBA-KBUR

N842X :: KSBA-KBUR

FLIGHT INFORMATION

Flight Status: Arrived
Operator: Privately registered:
United States
More flights under this callsign
Pilot: John C. (29941)
Aircraft: CESSNA 172 SKYHAWK
(C172)
More flights by this aircraft type
Origin: KSBA Santa Barbara Mun
United States
Destination: KBUR Bob Hope-Burbank
United States
More flights between these airports :: More routes between these airports
Route: +KSBA KBUR
File this flight plan on PilotEdge
Remarks: NEW PILOT
Altitude:
(Current/Filed)
7,500ft
Speed:
(Current/Filed)
125kts
Departed: 31-Jul-20 06:06 PM
Arrived: 31-Jul-20 06:54 PM
Distance/Time
Traveled:
75nm/0:48
Distance/Time
To Go:
Arrived

Flight Plot

Page will automatically refresh every two minutes.


Map Options




Map Legend


Flown Route
Filed Route
Departure Airport
Arrival Airport
Navaid (VOR, NDB)
Fix

Horizontal Profiles

Position Reports

Time Latitude Longitude Heading Altitude Ground
Speed
31-Jul-20 17:29 34.422664 -119.835593 340 14ft 0kts
31-Jul-20 17:30 34.422664 -119.835593 340 14ft 0kts
31-Jul-20 17:38 34.422664 -119.835593 340 14ft 0kts
31-Jul-20 17:39 34.422664 -119.835593 340 14ft 0kts
31-Jul-20 17:40 34.422664 -119.835593 340 14ft 0kts
31-Jul-20 17:41 34.422664 -119.835593 340 14ft 0kts
31-Jul-20 17:41 34.422664 -119.835593 340 14ft 0kts
31-Jul-20 17:43 34.422664 -119.835593 340 14ft 0kts
31-Jul-20 17:44 34.422664 -119.835593 340 14ft 0kts
31-Jul-20 17:44 34.422664 -119.835593 340 14ft 0kts
31-Jul-20 17:45 34.422664 -119.835593 340 14ft 0kts
31-Jul-20 17:47 34.422664 -119.835593 340 14ft 0kts
31-Jul-20 17:47 34.422664 -119.835593 340 14ft 0kts
31-Jul-20 17:48 34.422664 -119.835593 340 14ft 0kts
31-Jul-20 17:50 34.422664 -119.835593 340 14ft 0kts
31-Jul-20 17:50 34.422664 -119.835593 340 14ft 0kts
31-Jul-20 17:51 34.422664 -119.835593 340 14ft 0kts
31-Jul-20 17:52 34.422664 -119.835593 340 14ft 0kts
31-Jul-20 17:53 34.422664 -119.835593 340 14ft 0kts
31-Jul-20 17:54 34.422664 -119.835593 340 14ft 0kts
31-Jul-20 17:55 34.422664 -119.835593 340 14ft 0kts
31-Jul-20 17:56 34.422664 -119.835593 340 14ft 0kts
31-Jul-20 17:57 34.422726 -119.836674 264 14ft 7kts
31-Jul-20 17:58 34.425182 -119.837881 346 12ft 16kts
31-Jul-20 17:59 34.426883 -119.834950 33 12ft 13kts
31-Jul-20 18:00 34.426964 -119.834895 26 12ft 0kts
31-Jul-20 18:01 34.426964 -119.834895 26 12ft 0kts
31-Jul-20 18:02 34.426964 -119.834895 26 12ft 0kts
31-Jul-20 18:03 34.426964 -119.834895 26 12ft 0kts
31-Jul-20 18:04 34.426964 -119.834895 26 12ft 0kts
31-Jul-20 18:05 34.427856 -119.837937 269 14ft 60kts
31-Jul-20 18:06 34.426910 -119.867861 262 810ft 90kts
31-Jul-20 18:07 34.426175 -119.900101 265 1558ft 106kts
31-Jul-20 18:08 34.425156 -119.930347 265 2553ft 84kts
31-Jul-20 18:09 34.410581 -119.931250 91 3199ft 104kts
31-Jul-20 18:10 34.413696 -119.897807 87 3910ft 100kts
31-Jul-20 18:11 34.413626 -119.863290 93 4514ft 104kts
31-Jul-20 18:12 34.413435 -119.828970 91 5101ft 103kts
31-Jul-20 18:13 34.412284 -119.794563 90 5664ft 102kts
31-Jul-20 18:14 34.410962 -119.760291 92 6329ft 103kts
31-Jul-20 18:15 34.410003 -119.725223 93 6953ft 105kts
31-Jul-20 18:16 34.408585 -119.689189 95 7450ft 115kts
31-Jul-20 18:17 34.405079 -119.649837 92 7378ft 115kts
31-Jul-20 18:18 34.405675 -119.611009 86 7439ft 113kts
31-Jul-20 18:19 34.405773 -119.572926 90 7429ft 112kts
31-Jul-20 18:20 34.404660 -119.534914 92 7496ft 112kts
31-Jul-20 18:21 34.402537 -119.496954 92 7509ft 112kts
31-Jul-20 18:22 34.400722 -119.458860 91 7511ft 113kts
31-Jul-20 18:23 34.398966 -119.420789 92 7520ft 112kts
31-Jul-20 18:24 34.397852 -119.382856 89 7520ft 113kts
31-Jul-20 18:25 34.394477 -119.344900 95 7518ft 113kts
31-Jul-20 18:26 34.391028 -119.306943 96 7494ft 113kts
31-Jul-20 18:27 34.386615 -119.269289 96 7480ft 113kts
31-Jul-20 18:28 34.381687 -119.231715 95 7463ft 114kts
31-Jul-20 18:29 34.378464 -119.193524 97 7464ft 114kts
31-Jul-20 18:30 34.373808 -119.155500 97 7479ft 114kts
31-Jul-20 18:31 34.373043 -119.117265 89 7495ft 114kts
31-Jul-20 18:32 34.372733 -119.078917 97 7508ft 114kts
31-Jul-20 18:33 34.367651 -119.041034 97 7523ft 113kts
31-Jul-20 18:34 34.365042 -119.002358 95 7515ft 115kts
31-Jul-20 18:35 34.362641 -118.963689 95 7511ft 115kts
31-Jul-20 18:36 34.365104 -118.925013 82 7492ft 116kts
31-Jul-20 18:37 34.357881 -118.887289 103 7502ft 115kts
31-Jul-20 18:38 34.347828 -118.850306 114 7502ft 115kts
31-Jul-20 18:39 34.336535 -118.813572 114 7501ft 117kts
31-Jul-20 18:40 34.325736 -118.776422 105 7528ft 117kts
31-Jul-20 18:41 34.311562 -118.741445 121 7546ft 116kts
31-Jul-20 18:42 34.295883 -118.707401 120 7611ft 115kts
31-Jul-20 18:43 34.285170 -118.670280 112 7610ft 116kts
31-Jul-20 18:44 34.272948 -118.633922 118 7199ft 115kts
31-Jul-20 18:45 34.259752 -118.598636 107 6625ft 115kts
31-Jul-20 18:46 34.247628 -118.562969 121 5936ft 113kts
31-Jul-20 18:47 34.234504 -118.528491 124 5223ft 112kts
31-Jul-20 18:48 34.224571 -118.493380 104 4445ft 111kts
31-Jul-20 18:49 34.218651 -118.457239 107 3390ft 108kts
31-Jul-20 18:50 34.210920 -118.423515 114 2269ft 101kts
31-Jul-20 18:51 34.201815 -118.393657 118 1432ft 77kts
31-Jul-20 18:52 34.197900 -118.367761 93 752ft 67kts
31-Jul-20 18:53 34.197189 -118.360261 180 718ft 0kts
31-Jul-20 18:54 34.196879 -118.360159 134 717ft 7kts
31-Jul-20 18:55 34.196231 -118.358721 97 712ft 0kts

Navigation Log

Ident Type
Flight plan parsing failed, navigation log unavailable